Dalhart Municipal Airport Dalhart US
ICAO: KDHT
IATA: DHT
Category: Medium
Scheduled Services: No

Elevation: 3991 ft
TransAlt. 18000 ft.

Airport Communications:
ASOS:134.075
ALBUQUERQUE CNTR:127.85
FORT WORTH RDO:122.2
CTAF/UNICOM:122.95

KDHT Zoom In..

Runways:

(A) RW 03 length 5440 ft width 75 ft
---- / hdg 36

(B) RW 17 length 6400 ft width 75 ft
---- / hdg 171

(C) RW 21 length 5440 ft width 75 ft
---- / hdg 216

(D) RW 35 length 6400 ft width 75 ft
---- / hdg 351

Location; KDHT
Day. 22 / Time. 01.53 Zulu
* Altimeter: 30.02
* Temperature: 23° c. 73.4°f.
* Wind from: 170° Speed 08 kn.
Dewpoint: 11° c.
Visibility: 10 Statute Miles.
Clouds: Clear (automated report).

KDHT 220153Z AUTO 17008KT 10SM CLR 23/11 A3002 RMK AO2 SLP119 T02280106


Wind From 170°
Speed 08 kn.

 
 
jpsmedia.com for Web Design SOUNDCLOUD worldairports.se 2018   terms of use